createdAt,value
2019-03-08T00:01:21.414Z,9.52
2019-03-08T00:03:53.474Z,9.50
2019-03-08T00:06:23.069Z,9.46
2019-03-08T00:08:52.639Z,9.48
2019-03-08T00:11:22.218Z,9.47
2019-03-08T00:13:51.695Z,9.46
2019-03-08T00:16:21.760Z,9.42
2019-03-08T00:18:51.719Z,9.43
2019-03-08T00:21:21.441Z,9.44
2019-03-08T00:23:50.750Z,9.41
2019-03-08T00:26:20.328Z,9.36
2019-03-08T00:28:49.677Z,9.32
2019-03-08T00:31:18.957Z,9.36
2019-03-08T00:33:48.576Z,9.32
2019-03-08T00:36:17.886Z,9.22
2019-03-08T00:38:47.434Z,9.18
2019-03-08T00:41:17.044Z,9.17
2019-03-08T00:43:46.323Z,9.14
2019-03-08T00:46:16.738Z,9.08
2019-03-08T00:48:46.402Z,9.07
2019-03-08T00:51:15.737Z,9.15
2019-03-08T00:53:45.158Z,9.12
2019-03-08T00:56:14.511Z,9.13
2019-03-08T00:58:44.092Z,9.10
2019-03-08T01:01:13.419Z,9.13
2019-03-08T01:03:42.838Z,9.17
2019-03-08T01:06:12.441Z,9.18
2019-03-08T01:08:42.435Z,9.11
2019-03-08T01:11:12.101Z,9.10
2019-03-08T01:13:41.856Z,9.14
2019-03-08T01:16:11.715Z,9.25
2019-03-08T01:18:42.260Z,9.24
2019-03-08T01:21:11.609Z,9.22
2019-03-08T01:23:41.529Z,9.14
2019-03-08T01:26:11.097Z,9.12
2019-03-08T01:28:40.990Z,9.15
2019-03-08T01:31:10.573Z,9.09
2019-03-08T01:33:40.563Z,9.05
2019-03-08T01:36:10.131Z,9.05
2019-03-08T01:38:39.773Z,9.07
2019-03-08T01:41:09.409Z,9.04
2019-03-08T01:43:39.149Z,9.10
2019-03-08T01:46:08.792Z,9.09
2019-03-08T01:48:38.131Z,9.07
2019-03-08T01:51:07.429Z,9.08
2019-03-08T01:53:37.290Z,9.04
2019-03-08T01:56:06.939Z,8.96
2019-03-08T01:58:36.261Z,8.95
2019-03-08T02:01:05.590Z,9.07
2019-03-08T02:03:35.189Z,8.99
2019-03-08T02:06:04.931Z,8.94
2019-03-08T02:08:34.507Z,9.00
2019-03-08T02:11:06.653Z,9.01
2019-03-08T02:13:35.944Z,9.09
2019-03-08T02:16:05.295Z,9.15
2019-03-08T02:18:34.606Z,9.14
2019-03-08T02:21:07.012Z,9.18
2019-03-08T02:23:35.500Z,9.15
2019-03-08T02:26:04.835Z,9.14
2019-03-08T02:28:34.919Z,9.15
2019-03-08T02:31:04.223Z,9.28
2019-03-08T02:33:33.574Z,9.34
2019-03-08T02:36:02.856Z,9.48
2019-03-08T02:38:32.329Z,9.49
2019-03-08T02:41:01.924Z,9.48
2019-03-08T02:43:31.230Z,9.45
2019-03-08T02:46:00.936Z,9.45
2019-03-08T02:48:30.233Z,9.47
2019-03-08T02:51:00.418Z,9.49
2019-03-08T02:53:29.766Z,9.51
2019-03-08T02:55:59.065Z,9.52
2019-03-08T02:58:28.924Z,9.50
2019-03-08T03:00:58.454Z,9.48
2019-03-08T03:03:28.032Z,9.51
2019-03-08T03:05:57.344Z,9.51
2019-03-08T03:08:26.939Z,9.65
2019-03-08T03:10:56.290Z,9.63
2019-03-08T03:13:26.309Z,9.65
2019-03-08T03:15:55.637Z,9.63
2019-03-08T03:18:25.746Z,9.68
2019-03-08T03:20:55.415Z,9.72
2019-03-08T03:23:24.725Z,9.71
2019-03-08T03:25:54.513Z,9.67
2019-03-08T03:28:24.165Z,9.66
2019-03-08T03:30:53.937Z,9.57
2019-03-08T03:33:23.409Z,9.58
2019-03-08T03:35:53.136Z,9.57
2019-03-08T03:38:22.887Z,9.50
2019-03-08T03:40:52.470Z,9.40
2019-03-08T03:43:22.021Z,9.46
2019-03-08T03:45:52.024Z,9.44
2019-03-08T03:48:21.633Z,9.42
2019-03-08T03:50:50.931Z,9.40
2019-03-08T03:53:21.012Z,9.45
2019-03-08T03:55:50.725Z,9.40
2019-03-08T03:58:20.490Z,9.43
2019-03-08T04:00:50.062Z,9.45
2019-03-08T04:03:19.374Z,9.40
2019-03-08T04:05:48.703Z,9.36
2019-03-08T04:08:18.012Z,9.42
2019-03-08T04:10:47.327Z,9.43
2019-03-08T04:13:16.622Z,9.44
2019-03-08T04:15:46.573Z,9.46
2019-03-08T04:18:15.894Z,9.50
2019-03-08T04:20:45.614Z,9.47
2019-03-08T04:23:15.222Z,9.53
2019-03-08T04:25:44.696Z,9.49
2019-03-08T04:28:14.259Z,9.44
2019-03-08T04:30:45.524Z,9.40
2019-03-08T04:33:14.917Z,9.37
2019-03-08T04:35:45.075Z,9.33
2019-03-08T04:38:14.819Z,9.37
2019-03-08T04:40:44.113Z,9.36
2019-03-08T04:43:13.443Z,9.44
2019-03-08T04:45:42.991Z,9.40
2019-03-08T04:48:12.607Z,9.51
2019-03-08T04:50:41.925Z,9.52
2019-03-08T04:53:11.521Z,9.45
2019-03-08T04:55:41.542Z,9.47
2019-03-08T04:58:10.845Z,9.47
2019-03-08T05:00:40.426Z,9.45
2019-03-08T05:03:10.024Z,9.46
2019-03-08T05:05:39.334Z,9.43
2019-03-08T05:08:09.065Z,9.39
2019-03-08T05:10:38.929Z,9.49
2019-03-08T05:13:09.870Z,9.52
2019-03-08T05:15:39.827Z,9.48
2019-03-08T05:18:09.222Z,9.47
2019-03-08T05:20:38.820Z,9.48
2019-03-08T05:23:08.134Z,9.48
2019-03-08T05:25:37.978Z,9.46
2019-03-08T05:28:08.013Z,9.45
2019-03-08T05:30:37.394Z,9.46
2019-03-08T05:33:07.053Z,9.41
2019-03-08T05:35:36.497Z,9.40
2019-03-08T05:38:05.808Z,9.40
2019-03-08T05:40:35.501Z,9.43
2019-03-08T05:43:04.956Z,9.36
2019-03-08T05:45:34.553Z,9.32
2019-03-08T05:48:03.845Z,9.31
2019-03-08T05:50:33.284Z,9.37
2019-03-08T05:53:02.646Z,9.36
2019-03-08T05:55:32.169Z,9.47
2019-03-08T05:58:02.472Z,9.43
2019-03-08T06:00:35.042Z,9.43
2019-03-08T06:03:04.741Z,9.41
2019-03-08T06:05:34.605Z,9.41
2019-03-08T06:08:04.234Z,9.45
2019-03-08T06:10:36.178Z,9.51
2019-03-08T06:13:07.679Z,9.52
2019-03-08T06:15:37.001Z,9.46
2019-03-08T06:18:06.646Z,9.44
2019-03-08T06:20:36.249Z,9.44
2019-03-08T06:23:05.546Z,9.44
2019-03-08T06:25:35.120Z,9.39
2019-03-08T06:28:04.411Z,9.42
2019-03-08T06:30:34.300Z,9.42
2019-03-08T06:33:03.884Z,9.48
2019-03-08T06:35:33.475Z,9.44
2019-03-08T06:38:02.971Z,9.49
2019-03-08T06:40:32.480Z,9.43
2019-03-08T06:43:01.790Z,9.43
2019-03-08T06:45:31.729Z,9.44
2019-03-08T06:48:01.175Z,9.47
2019-03-08T06:50:31.146Z,9.50
2019-03-08T06:53:00.752Z,9.46
2019-03-08T06:55:30.364Z,9.49
2019-03-08T06:58:02.088Z,9.61
2019-03-08T07:00:36.228Z,9.64
2019-03-08T07:03:07.807Z,9.60
2019-03-08T07:05:37.107Z,9.72
2019-03-08T07:08:06.696Z,9.80
2019-03-08T07:10:36.295Z,9.81
2019-03-08T07:13:05.622Z,9.79
2019-03-08T07:15:35.147Z,9.80
2019-03-08T07:18:12.195Z,9.78
2019-03-08T07:20:35.342Z,9.95
2019-03-08T07:23:06.559Z,9.99
2019-03-08T07:25:54.496Z,9.99
2019-03-08T07:28:23.874Z,10.04
2019-03-08T07:31:08.364Z,10.16
2019-03-08T07:33:53.645Z,10.16
2019-03-08T07:36:41.039Z,10.26
2019-03-08T07:39:21.666Z,10.44
2019-03-08T07:42:01.085Z,10.35
2019-03-08T07:44:40.101Z,10.34
2019-03-08T07:47:17.418Z,10.19
2019-03-08T07:50:04.350Z,10.43
2019-03-08T07:52:53.618Z,10.59
2019-03-08T07:55:30.998Z,10.65
2019-03-08T07:58:02.103Z,10.50
2019-03-08T08:00:31.529Z,10.43
2019-03-08T08:03:17.304Z,10.31
2019-03-08T08:06:00.582Z,10.24
2019-03-08T08:08:38.100Z,10.29
2019-03-08T08:11:16.472Z,10.26
2019-03-08T08:13:47.927Z,10.30
2019-03-08T08:16:23.355Z,10.33
2019-03-08T08:18:52.449Z,10.41
2019-03-08T08:21:35.009Z,10.29
2019-03-08T08:24:08.362Z,10.15
2019-03-08T08:26:37.440Z,10.28
2019-03-08T08:29:34.490Z,10.26
2019-03-08T08:32:07.246Z,10.30
2019-03-08T08:34:40.721Z,10.21
2019-03-08T08:37:18.186Z,10.23
2019-03-08T08:39:51.160Z,10.35
2019-03-08T08:42:37.335Z,10.28
2019-03-08T08:45:12.289Z,10.30
2019-03-08T08:47:51.042Z,10.27
2019-03-08T08:50:35.700Z,10.19
2019-03-08T08:53:20.447Z,10.25
2019-03-08T08:55:51.801Z,10.26
2019-03-08T08:58:41.451Z,10.40
2019-03-08T09:01:12.420Z,10.55
2019-03-08T09:03:43.641Z,10.37
2019-03-08T09:06:23.496Z,10.57
2019-03-08T09:08:55.155Z,10.74
2019-03-08T09:11:24.606Z,10.60
2019-03-08T09:14:04.931Z,10.54
2019-03-08T09:16:44.914Z,10.53
2019-03-08T09:19:18.579Z,10.45
2019-03-08T09:21:48.187Z,10.57
2019-03-08T09:24:28.111Z,10.53
2019-03-08T09:27:17.512Z,10.51
2019-03-08T09:30:06.702Z,10.60
2019-03-08T09:32:40.906Z,10.56
2019-03-08T09:35:14.873Z,10.43
2019-03-08T09:37:44.214Z,10.32
2019-03-08T09:40:19.287Z,10.39
2019-03-08T09:42:50.570Z,10.51
2019-03-08T09:45:20.895Z,10.52
2019-03-08T09:47:51.969Z,10.34
2019-03-08T09:50:26.612Z,10.40
2019-03-08T09:52:57.894Z,10.34
2019-03-08T09:55:35.110Z,10.50
2019-03-08T09:58:08.963Z,10.59
2019-03-08T10:00:56.665Z,10.37
2019-03-08T10:03:33.642Z,10.46
2019-03-08T10:06:10.624Z,10.63
2019-03-08T10:08:53.912Z,10.80
2019-03-08T10:11:25.203Z,10.69
2019-03-08T10:14:02.570Z,10.57
2019-03-08T10:16:46.525Z,10.57
2019-03-08T10:19:18.018Z,10.45
2019-03-08T10:21:49.621Z,10.45
2019-03-08T10:24:23.830Z,10.62
2019-03-08T10:27:06.387Z,10.57
2019-03-08T10:29:50.481Z,10.53
2019-03-08T10:32:26.882Z,10.57
2019-03-08T10:35:20.512Z,10.79
2019-03-08T10:37:48.298Z,10.48
2019-03-08T10:40:19.681Z,10.50
2019-03-08T10:42:53.326Z,10.40
2019-03-08T10:45:26.851Z,10.39
2019-03-08T10:48:06.873Z,10.53
2019-03-08T10:50:54.400Z,10.72
2019-03-08T10:53:28.278Z,10.77
2019-03-08T10:56:15.759Z,10.80
2019-03-08T10:58:50.255Z,10.88
2019-03-08T11:01:21.282Z,10.79
2019-03-08T11:03:53.175Z,10.90
2019-03-08T11:06:25.625Z,10.67
2019-03-08T11:09:02.271Z,10.77
2019-03-08T11:11:48.257Z,10.80
2019-03-08T11:14:25.478Z,10.73
2019-03-08T11:16:55.162Z,10.69
2019-03-08T11:19:27.672Z,10.78
2019-03-08T11:22:14.704Z,10.95
2019-03-08T11:24:48.411Z,10.83
2019-03-08T11:27:20.570Z,10.71
2019-03-08T11:30:10.194Z,10.56
2019-03-08T11:32:41.241Z,10.59
2019-03-08T11:35:10.893Z,10.55
2019-03-08T11:37:59.165Z,10.37
2019-03-08T11:40:43.200Z,10.30
2019-03-08T11:43:16.885Z,10.32
2019-03-08T11:45:55.679Z,10.38
2019-03-08T11:48:35.668Z,10.33
2019-03-08T11:51:23.150Z,10.37
2019-03-08T11:54:10.632Z,10.41
2019-03-08T11:56:57.874Z,10.53
2019-03-08T11:59:32.652Z,10.59
2019-03-08T12:02:20.029Z,10.63
2019-03-08T12:04:51.331Z,10.51
2019-03-08T12:07:22.388Z,10.27
2019-03-08T12:10:09.668Z,10.33
2019-03-08T12:12:43.358Z,10.41
2019-03-08T12:15:18.168Z,10.07
2019-03-08T12:17:58.390Z,10.13
2019-03-08T12:20:29.633Z,9.89
2019-03-08T12:23:12.712Z,9.90
2019-03-08T12:25:44.108Z,9.85
2019-03-08T12:28:33.798Z,10.00
2019-03-08T12:31:04.837Z,9.98
2019-03-08T12:33:35.782Z,9.89
2019-03-08T12:36:22.837Z,9.86
2019-03-08T12:38:59.827Z,10.01
2019-03-08T12:41:30.812Z,10.16
2019-03-08T12:44:14.116Z,10.06
2019-03-08T12:46:55.247Z,10.20
2019-03-08T12:49:26.198Z,10.30
2019-03-08T12:52:09.408Z,10.29
2019-03-08T12:54:55.107Z,10.09
2019-03-08T12:57:38.399Z,10.21
2019-03-08T13:00:16.541Z,9.97
2019-03-08T13:02:53.612Z,10.14
2019-03-08T13:05:27.442Z,10.33
2019-03-08T13:08:13.575Z,9.85
2019-03-08T13:10:43.198Z,9.90
2019-03-08T13:13:13.132Z,9.71
2019-03-08T13:15:42.513Z,9.77
2019-03-08T13:18:12.131Z,10.00
2019-03-08T13:20:41.993Z,10.07
2019-03-08T13:23:11.332Z,10.08
2019-03-08T13:25:40.680Z,10.04
2019-03-08T13:28:10.966Z,10.00
2019-03-08T13:30:40.309Z,10.16
2019-03-08T13:33:09.636Z,10.24
2019-03-08T13:35:39.157Z,10.33
2019-03-08T13:38:08.505Z,10.53
2019-03-08T13:40:40.150Z,10.05
2019-03-08T13:43:09.850Z,10.09
2019-03-08T13:45:39.180Z,10.29
2019-03-08T13:48:08.883Z,10.47
2019-03-08T13:50:38.536Z,10.45
2019-03-08T13:53:09.019Z,10.60
2019-03-08T13:55:38.652Z,10.65
2019-03-08T13:58:07.959Z,10.53
2019-03-08T14:00:37.590Z,10.08
2019-03-08T14:03:07.437Z,10.16
2019-03-08T14:05:36.727Z,10.38
2019-03-08T14:08:06.053Z,10.36
2019-03-08T14:10:35.467Z,10.29
2019-03-08T14:13:05.166Z,10.42
2019-03-08T14:15:34.624Z,10.41
2019-03-08T14:18:04.188Z,10.48
2019-03-08T14:20:33.509Z,10.46
2019-03-08T14:23:02.816Z,10.55
2019-03-08T14:25:32.428Z,10.52
2019-03-08T14:28:02.513Z,10.94
2019-03-08T14:30:37.567Z,11.11
2019-03-08T14:33:06.982Z,10.81
2019-03-08T14:35:36.581Z,10.85
2019-03-08T14:38:07.833Z,10.39
2019-03-08T14:40:48.146Z,10.39
2019-03-08T14:43:25.035Z,10.46
2019-03-08T14:46:05.140Z,10.38
2019-03-08T14:48:34.854Z,10.27
2019-03-08T14:51:04.473Z,10.46
2019-03-08T14:53:34.388Z,10.60
2019-03-08T14:56:04.160Z,10.44
2019-03-08T14:58:36.779Z,10.48
2019-03-08T15:01:07.519Z,10.68
2019-03-08T15:03:43.370Z,10.69
2019-03-08T15:06:07.924Z,10.83
2019-03-08T15:08:37.749Z,10.90
2019-03-08T15:11:07.847Z,10.83
2019-03-08T15:13:37.512Z,10.21
2019-03-08T15:16:06.904Z,9.62
2019-03-08T15:18:36.189Z,9.23
2019-03-08T15:21:05.654Z,9.15
2019-03-08T15:23:35.499Z,9.10
2019-03-08T15:26:05.230Z,8.64
2019-03-08T15:28:34.759Z,8.43
2019-03-08T15:31:04.064Z,8.00
2019-03-08T15:33:33.719Z,7.65
2019-03-08T15:36:03.352Z,7.60
2019-03-08T15:38:32.682Z,7.07
2019-03-08T15:41:02.007Z,6.92
2019-03-08T15:43:31.748Z,6.77
2019-03-08T15:46:02.443Z,6.48
2019-03-08T15:48:31.810Z,6.49
2019-03-08T15:51:01.511Z,6.53
2019-03-08T15:53:31.202Z,6.70
2019-03-08T15:56:00.500Z,6.89
2019-03-08T15:58:30.034Z,6.99
2019-03-08T16:00:59.356Z,7.17
2019-03-08T16:03:30.027Z,7.23
2019-03-08T16:06:02.959Z,7.09
2019-03-08T16:08:31.816Z,7.01
2019-03-08T16:11:01.527Z,6.81
2019-03-08T16:13:31.830Z,6.95
2019-03-08T16:16:01.464Z,7.02
2019-03-08T16:18:31.178Z,7.06
2019-03-08T16:21:00.515Z,7.15
2019-03-08T16:23:30.191Z,7.04
2019-03-08T16:25:59.788Z,7.11
2019-03-08T16:28:29.129Z,7.19
2019-03-08T16:31:02.758Z,7.25
2019-03-08T16:33:49.406Z,7.21
2019-03-08T16:36:28.076Z,7.25
2019-03-08T16:39:02.323Z,7.33
2019-03-08T16:41:51.597Z,7.35
2019-03-08T16:44:23.229Z,7.36
2019-03-08T16:46:56.897Z,7.34
2019-03-08T16:49:38.764Z,7.31
2019-03-08T16:52:25.661Z,7.41
2019-03-08T16:54:56.843Z,7.40
2019-03-08T16:57:30.818Z,7.36
2019-03-08T17:00:02.055Z,7.40
2019-03-08T17:02:39.069Z,7.53
2019-03-08T17:05:16.717Z,7.47
2019-03-08T17:07:50.846Z,7.30
2019-03-08T17:10:39.384Z,7.22
2019-03-08T17:13:13.238Z,7.18
2019-03-08T17:15:44.530Z,7.20
2019-03-08T17:18:27.743Z,7.30
2019-03-08T17:21:01.689Z,7.22
2019-03-08T17:23:48.500Z,7.27
2019-03-08T17:26:27.490Z,7.24
2019-03-08T17:29:01.179Z,7.14
2019-03-08T17:31:32.286Z,7.29
2019-03-08T17:34:03.739Z,7.16
2019-03-08T17:36:35.072Z,7.19
2019-03-08T17:39:27.026Z,7.05
2019-03-08T17:42:01.013Z,7.00
2019-03-08T17:44:48.457Z,6.96
2019-03-08T17:47:19.808Z,6.97
2019-03-08T17:49:49.201Z,6.90
2019-03-08T17:52:30.694Z,6.89
2019-03-08T17:55:17.737Z,6.96
2019-03-08T17:58:05.475Z,7.00
2019-03-08T18:00:42.137Z,6.99
2019-03-08T18:03:26.550Z,7.00
2019-03-08T18:06:14.190Z,6.97
2019-03-08T18:08:46.075Z,6.93
2019-03-08T18:11:27.161Z,6.82
2019-03-08T18:13:56.733Z,6.89
2019-03-08T18:16:27.698Z,7.02
2019-03-08T18:19:06.202Z,7.06
2019-03-08T18:21:53.777Z,7.07
2019-03-08T18:24:42.332Z,7.05
2019-03-08T18:27:13.749Z,7.13
2019-03-08T18:29:47.838Z,7.13
2019-03-08T18:32:19.207Z,7.16
2019-03-08T18:35:07.120Z,7.26
2019-03-08T18:37:54.287Z,7.23
2019-03-08T18:40:25.304Z,7.23
2019-03-08T18:42:59.460Z,7.17
2019-03-08T18:45:31.705Z,7.17
2019-03-08T18:48:18.818Z,7.16
2019-03-08T18:50:56.032Z,7.14
2019-03-08T18:53:44.047Z,7.02
2019-03-08T18:56:32.911Z,6.95
2019-03-08T18:59:15.923Z,7.00
2019-03-08T19:01:56.148Z,6.91
2019-03-08T19:04:27.403Z,6.96
2019-03-08T19:07:14.766Z,6.85
2019-03-08T19:09:48.570Z,6.90
2019-03-08T19:12:25.810Z,6.91
2019-03-08T19:15:13.443Z,6.89
2019-03-08T19:17:44.434Z,6.92
2019-03-08T19:20:21.146Z,6.92
2019-03-08T19:23:04.625Z,7.00
2019-03-08T19:25:52.525Z,7.04
2019-03-08T19:28:29.408Z,7.21
2019-03-08T19:31:00.647Z,7.20
2019-03-08T19:33:31.886Z,7.22
2019-03-08T19:36:03.338Z,7.11
2019-03-08T19:38:36.909Z,7.13
2019-03-08T19:41:13.997Z,7.06
2019-03-08T19:43:51.018Z,7.02
2019-03-08T19:46:37.315Z,7.05
2019-03-08T19:49:11.191Z,7.01
2019-03-08T19:51:49.036Z,7.04
2019-03-08T19:54:20.488Z,7.01
2019-03-08T19:56:54.258Z,7.01
2019-03-08T19:59:40.410Z,6.97
2019-03-08T20:02:09.532Z,6.85
2019-03-08T20:04:40.495Z,6.89
2019-03-08T20:07:17.401Z,6.89
2019-03-08T20:09:51.276Z,6.93
2019-03-08T20:12:25.867Z,6.84
2019-03-08T20:14:57.248Z,6.88
2019-03-08T20:17:34.271Z,6.82
2019-03-08T20:20:28.171Z,6.78
2019-03-08T20:23:05.296Z,6.84
2019-03-08T20:25:36.269Z,6.76
2019-03-08T20:28:10.381Z,6.72
2019-03-08T20:30:41.379Z,6.86
2019-03-08T20:33:22.444Z,6.79
2019-03-08T20:35:53.701Z,6.75
2019-03-08T20:38:27.357Z,6.74
2019-03-08T20:41:04.504Z,6.72
2019-03-08T20:43:35.527Z,6.65
2019-03-08T20:46:06.521Z,6.62
2019-03-08T20:48:36.286Z,6.62
2019-03-08T20:51:06.390Z,6.63
2019-03-08T20:53:35.980Z,6.67
2019-03-08T20:56:05.751Z,6.63
2019-03-08T20:58:35.241Z,6.70
2019-03-08T21:01:04.820Z,6.63
2019-03-08T21:03:34.637Z,6.66
2019-03-08T21:06:04.270Z,6.62
2019-03-08T21:08:34.405Z,6.67
2019-03-08T21:11:03.777Z,6.58
2019-03-08T21:13:33.100Z,6.61
2019-03-08T21:16:02.695Z,6.57
2019-03-08T21:18:32.024Z,6.56
2019-03-08T21:21:01.356Z,6.52
2019-03-08T21:23:31.175Z,6.56
2019-03-08T21:26:00.846Z,6.52
2019-03-08T21:28:30.559Z,6.55
2019-03-08T21:31:00.330Z,6.56
2019-03-08T21:33:30.844Z,6.49
2019-03-08T21:36:00.331Z,6.51
2019-03-08T21:38:30.008Z,6.44
2019-03-08T21:41:00.024Z,6.36
2019-03-08T21:43:29.330Z,6.50
2019-03-08T21:45:59.125Z,6.48
2019-03-08T21:48:28.717Z,6.48
2019-03-08T21:50:58.635Z,6.41
2019-03-08T21:53:28.377Z,6.29
2019-03-08T21:55:57.749Z,6.39
2019-03-08T21:58:27.082Z,6.36
2019-03-08T22:00:56.811Z,6.39
2019-03-08T22:03:26.465Z,6.39
2019-03-08T22:05:55.795Z,6.37
2019-03-08T22:08:25.784Z,6.35
2019-03-08T22:10:59.855Z,6.44
2019-03-08T22:13:29.905Z,6.62
2019-03-08T22:15:59.323Z,6.69
2019-03-08T22:18:28.983Z,6.69
2019-03-08T22:20:58.586Z,6.71
2019-03-08T22:23:28.064Z,6.71
2019-03-08T22:25:58.696Z,6.79
2019-03-08T22:28:29.403Z,6.95
2019-03-08T22:30:59.335Z,6.93
2019-03-08T22:33:30.341Z,7.01
2019-03-08T22:36:00.107Z,7.02
2019-03-08T22:38:29.667Z,7.10
2019-03-08T22:40:59.272Z,7.14
2019-03-08T22:43:28.648Z,7.08
2019-03-08T22:45:58.391Z,6.98
2019-03-08T22:48:29.266Z,7.14
2019-03-08T22:50:58.664Z,7.10
2019-03-08T22:53:29.232Z,7.15
2019-03-08T22:56:00.274Z,7.18
2019-03-08T22:58:33.877Z,7.10
2019-03-08T23:01:06.499Z,7.20
2019-03-08T23:03:36.091Z,7.13
2019-03-08T23:06:05.766Z,7.07
2019-03-08T23:08:35.371Z,7.06
2019-03-08T23:11:05.968Z,7.04
2019-03-08T23:13:36.904Z,7.09
2019-03-08T23:16:07.008Z,7.04
2019-03-08T23:18:36.323Z,7.03
2019-03-08T23:21:06.928Z,7.01
2019-03-08T23:23:37.495Z,6.98
2019-03-08T23:26:07.588Z,7.00
2019-03-08T23:28:38.624Z,7.05
2019-03-08T23:31:18.979Z,7.08
2019-03-08T23:33:48.816Z,7.07
2019-03-08T23:36:18.152Z,7.05
2019-03-08T23:38:47.548Z,7.03
2019-03-08T23:41:17.193Z,7.02
2019-03-08T23:43:47.783Z,7.10
2019-03-08T23:46:17.435Z,7.31
2019-03-08T23:48:48.200Z,7.15
2019-03-08T23:51:17.502Z,7.15
2019-03-08T23:53:47.293Z,7.22
2019-03-08T23:56:16.643Z,7.22
2019-03-08T23:58:45.967Z,7.25
